Time;durP1;ratioP1;P1;durP2;ratioP2;P2;SDS_P1;SDS_P2;PMS_P1;PMS_P2;Temp;Humidity;BMP_temperature;BMP_pressure;BME280_temperature;BME280_humidity;BME280_pressure;Samples;Min_cycle;Max_cycle;Signal;HPM_P1;HPM_P2
2022/03/22 00:00:21;;;;;;;16.00;10.88;;;2.50;92.50;;;;;;5069749;28;20607;-68
2022/03/22 00:02:48;;;;;;;14.13;9.70;;;2.50;92.70;;;;;;5069772;28;20204;-68
2022/03/22 00:05:16;;;;;;;12.68;8.93;;;2.50;92.70;;;;;;5068832;28;20235;-67
2022/03/22 00:07:42;;;;;;;14.02;9.57;;;2.40;92.80;;;;;;5069339;28;20247;-67
2022/03/22 00:10:10;;;;;;;11.38;9.90;;;2.30;92.90;;;;;;5069476;28;20196;-67
2022/03/22 00:12:37;;;;;;;14.70;9.90;;;2.30;92.80;;;;;;5069653;28;20207;-67
2022/03/22 00:15:05;;;;;;;15.10;9.88;;;2.30;92.90;;;;;;5068676;28;20274;-67
2022/03/22 00:17:33;;;;;;;12.25;10.57;;;2.20;93.00;;;;;;5069396;28;20208;-67
2022/03/22 00:20:00;;;;;;;12.48;9.45;;;2.20;93.10;;;;;;5070189;28;20208;-67
2022/03/22 00:22:28;;;;;;;13.30;11.07;;;2.10;93.10;;;;;;5070349;28;20308;-66
2022/03/22 00:24:54;;;;;;;15.48;10.38;;;2.10;93.30;;;;;;5069851;28;20273;-67
2022/03/22 00:27:23;;;;;;;14.93;9.48;;;2.10;93.30;;;;;;5067927;28;20225;-68
2022/03/22 00:29:53;;;;;;;15.60;11.45;;;2.10;93.40;;;;;;5069940;28;20765;-68
2022/03/22 00:32:24;;;;;;;13.60;10.18;;;2.10;93.50;;;;;;5069243;28;20282;-68
2022/03/22 00:34:52;;;;;;;15.63;11.23;;;2.10;93.50;;;;;;5069397;28;20220;-68
2022/03/22 00:37:20;;;;;;;14.23;10.55;;;2.00;93.30;;;;;;5068906;28;20225;-68
2022/03/22 00:39:47;;;;;;;14.60;10.85;;;2.00;93.30;;;;;;5069273;28;20200;-68
2022/03/22 00:42:16;;;;;;;16.17;9.93;;;2.00;93.30;;;;;;5073325;28;20579;-67
2022/03/22 00:44:48;;;;;;;13.30;9.48;;;2.00;93.30;;;;;;5072946;28;20224;-68
2022/03/22 00:47:14;;;;;;;14.10;9.90;;;2.00;93.30;;;;;;5072736;28;20196;-68
2022/03/22 00:49:41;;;;;;;13.23;8.80;;;2.00;93.30;;;;;;5072848;28;20270;-68
2022/03/22 00:52:09;;;;;;;13.82;9.60;;;2.00;93.40;;;;;;5072908;28;20210;-67
2022/03/22 00:54:37;;;;;;;15.07;9.70;;;2.00;93.50;;;;;;5073025;28;20315;-68
2022/03/22 00:57:04;;;;;;;14.77;10.05;;;1.90;93.60;;;;;;5072108;28;20253;-67
2022/03/22 01:02:24;;;;;;;12.23;9.35;;;1.80;93.70;;;;;;5058379;22;20231;-90
2022/03/22 01:04:51;;;;;;;12.50;9.90;;;1.80;93.80;;;;;;5076687;28;20200;-90
2022/03/22 01:07:20;;;;;;;12.40;10.13;;;1.80;93.70;;;;;;5076085;28;20212;-89
2022/03/22 01:09:47;;;;;;;14.27;11.30;;;1.80;93.60;;;;;;5075856;28;20234;-91
2022/03/22 01:12:13;;;;;;;12.93;9.82;;;1.70;93.70;;;;;;5076312;28;20716;-90
2022/03/22 01:14:40;;;;;;;14.05;9.80;;;1.70;93.70;;;;;;5076468;28;20211;-89
2022/03/22 01:17:07;;;;;;;14.23;10.25;;;1.70;93.70;;;;;;5076076;28;20215;-90
2022/03/22 01:19:34;;;;;;;14.60;10.68;;;1.70;93.60;;;;;;5076761;28;20196;-90
2022/03/22 01:22:01;;;;;;;14.48;9.77;;;1.70;93.70;;;;;;5076929;28;20231;-89
2022/03/22 01:24:29;;;;;;;12.88;10.23;;;1.70;93.80;;;;;;5088453;28;20585;-90
2022/03/22 01:26:56;;;;;;;17.05;10.55;;;1.70;93.80;;;;;;5096861;28;20189;-89
2022/03/22 01:29:22;;;;;;;14.88;9.60;;;1.60;93.80;;;;;;5097620;28;20208;-90
2022/03/22 01:31:50;;;;;;;12.75;9.88;;;1.60;93.80;;;;;;5097135;28;20362;-90
2022/03/22 01:34:17;;;;;;;14.57;10.10;;;1.60;93.90;;;;;;5087624;28;20215;-89
2022/03/22 01:36:43;;;;;;;13.68;9.73;;;1.60;94.00;;;;;;5076937;28;20208;-89
2022/03/22 01:39:10;;;;;;;12.00;9.85;;;1.60;94.00;;;;;;5076335;28;20197;-89
2022/03/22 01:41:39;;;;;;;13.10;9.85;;;1.50;93.90;;;;;;5076635;28;20212;-89
2022/03/22 01:44:06;;;;;;;13.70;10.07;;;1.40;94.00;;;;;;5076292;28;20185;-90
2022/03/22 01:46:36;;;;;;;12.73;9.82;;;1.50;94.10;;;;;;5076915;28;20209;-90
2022/03/22 01:49:03;;;;;;;12.50;9.75;;;1.50;94.10;;;;;;5076115;28;20224;-89
2022/03/22 01:51:32;;;;;;;14.65;10.68;;;1.40;94.10;;;;;;5076084;28;20643;-90
2022/03/22 01:53:59;;;;;;;17.80;10.55;;;1.40;94.30;;;;;;5076881;28;20766;-89
2022/03/22 01:56:27;;;;;;;14.13;10.30;;;1.40;94.50;;;;;;5077455;28;20569;-89
2022/03/22 01:58:55;;;;;;;12.55;9.63;;;1.40;94.50;;;;;;5076846;28;20596;-90
2022/03/22 02:06:54;;;;;;;10.52;8.80;;;1.40;94.40;;;;;;5077135;28;20199;-90
2022/03/22 02:09:21;;;;;;;15.10;10.90;;;1.30;94.30;;;;;;5078273;28;20223;-91
2022/03/22 02:11:48;;;;;;;14.82;10.05;;;1.30;94.10;;;;;;5085632;28;20214;-89
2022/03/22 02:14:16;;;;;;;15.65;9.60;;;1.30;94.20;;;;;;5077602;28;20204;-91
2022/03/22 02:16:42;;;;;;;10.98;8.52;;;1.20;94.40;;;;;;5079268;28;20211;-91
2022/03/22 02:19:10;;;;;;;12.63;9.80;;;1.20;94.50;;;;;;5079010;28;20667;-89
2022/03/22 02:21:40;;;;;;;13.30;10.55;;;1.20;94.40;;;;;;5087908;28;20204;-90
2022/03/22 02:24:08;;;;;;;15.50;10.32;;;1.20;94.70;;;;;;5094031;28;20267;-90
2022/03/22 02:26:36;;;;;;;13.88;10.30;;;1.10;94.50;;;;;;5094695;28;20200;-90
2022/03/22 02:29:04;;;;;;;14.25;10.20;;;1.10;94.50;;;;;;5086216;28;20228;-89
2022/03/22 02:31:32;;;;;;;12.88;9.90;;;1.10;94.50;;;;;;5078025;28;20208;-89
2022/03/22 02:33:59;;;;;;;12.73;8.98;;;1.10;94.50;;;;;;5078371;28;20220;-89
2022/03/22 02:36:26;;;;;;;13.98;9.85;;;1.10;94.60;;;;;;5081284;28;20206;-89
2022/03/22 02:38:53;;;;;;;13.07;10.50;;;1.10;94.70;;;;;;5083734;28;20207;-89
2022/03/22 02:41:24;;;;;;;13.65;10.43;;;1.00;94.40;;;;;;5088640;28;20215;-90
2022/03/22 02:43:51;;;;;;;15.18;10.07;;;1.10;94.60;;;;;;5089134;28;20224;-91
2022/03/22 02:46:19;;;;;;;14.88;10.80;;;1.10;94.70;;;;;;5075769;28;20208;-88
2022/03/22 02:48:46;;;;;;;14.93;9.82;;;1.00;94.80;;;;;;5075051;28;20311;-90
2022/03/22 02:51:13;;;;;;;13.88;10.10;;;1.00;94.80;;;;;;5075090;28;20209;-90
2022/03/22 02:53:40;;;;;;;12.85;10.25;;;1.00;94.80;;;;;;5074667;28;20220;-90
2022/03/22 02:56:07;;;;;;;13.43;10.32;;;0.90;94.90;;;;;;5074064;28;20677;-90
2022/03/22 02:58:35;;;;;;;12.52;10.18;;;0.90;94.90;;;;;;5076071;28;20223;-91
2022/03/22 03:01:02;;;;;;;12.60;9.55;;;0.90;95.00;;;;;;5081838;28;20197;-91
2022/03/22 03:03:29;;;;;;;16.40;11.68;;;0.90;95.10;;;;;;5086886;28;20601;-91
2022/03/22 03:05:56;;;;;;;15.00;11.15;;;0.90;95.10;;;;;;5079319;28;20215;-89
2022/03/22 03:08:26;;;;;;;12.05;9.50;;;0.90;95.20;;;;;;5074867;28;20212;-90
2022/03/22 03:10:53;;;;;;;14.60;11.00;;;0.90;95.30;;;;;;5074182;28;20692;-91
2022/03/22 03:13:20;;;;;;;15.13;10.68;;;0.80;95.30;;;;;;5073980;28;20574;-90
2022/03/22 03:15:50;;;;;;;11.38;9.48;;;0.80;95.60;;;;;;5074243;28;20626;-89
2022/03/22 03:18:18;;;;;;;12.80;9.95;;;0.80;95.50;;;;;;5074021;28;20287;-90
2022/03/22 03:20:45;;;;;;;14.27;10.20;;;0.80;95.50;;;;;;5074138;28;20712;-90
2022/03/22 03:23:11;;;;;;;14.90;9.50;;;0.80;95.50;;;;;;5074197;28;20224;-89
2022/03/22 03:25:38;;;;;;;14.55;9.70;;;0.80;95.60;;;;;;5074461;28;20196;-89
2022/03/22 03:28:05;;;;;;;12.95;9.75;;;0.80;95.70;;;;;;5074148;28;20211;-90
2022/03/22 03:30:32;;;;;;;14.45;11.10;;;0.70;95.60;;;;;;5073766;28;20311;-91
2022/03/22 03:33:00;;;;;;;14.40;9.90;;;0.70;95.60;;;;;;5073609;28;20227;-90
2022/03/22 03:35:27;;;;;;;14.82;9.70;;;0.70;95.50;;;;;;5073878;28;20299;-90
2022/03/22 03:37:54;;;;;;;14.60;10.73;;;0.70;95.60;;;;;;5073320;28;20215;-89
2022/03/22 03:41:53;;;;;;;12.65;9.90;;;0.60;95.70;;;;;;5073699;28;20208;-90
2022/03/22 03:43:07;;;;;;;14.15;9.40;;;0.60;95.70;;;;;;5073356;28;20224;-90
2022/03/22 03:48:19;;;;;;;18.88;10.65;;;0.60;95.80;;;;;;5076544;28;20245;-89
2022/03/22 03:50:46;;;;;;;18.33;11.45;;;0.60;95.70;;;;;;5078494;28;20224;-89
2022/03/22 03:53:13;;;;;;;13.77;10.50;;;0.60;95.50;;;;;;5076940;28;20224;-89
2022/03/22 03:55:40;;;;;;;12.55;9.82;;;0.60;95.50;;;;;;5074906;28;20599;-90
2022/03/22 03:58:06;;;;;;;14.90;11.05;;;0.60;95.60;;;;;;5073199;28;20207;-89
2022/03/22 04:00:33;;;;;;;17.67;11.13;;;0.50;95.70;;;;;;5074015;28;20196;-89
2022/03/22 04:03:00;;;;;;;14.32;10.93;;;0.50;95.70;;;;;;5076874;28;20235;-88
2022/03/22 04:05:28;;;;;;;14.07;10.43;;;0.50;95.80;;;;;;5077419;28;20295;-91
2022/03/22 04:07:55;;;;;;;16.77;10.18;;;0.50;95.60;;;;;;5077427;28;20204;-89
2022/03/22 04:10:21;;;;;;;14.73;10.73;;;0.50;95.60;;;;;;5079082;28;20591;-89
2022/03/22 04:12:48;;;;;;;13.70;10.82;;;0.50;95.70;;;;;;5075973;28;20220;-89
2022/03/22 04:15:15;;;;;;;15.93;10.77;;;0.50;95.60;;;;;;5074864;28;20222;-89
2022/03/22 04:17:41;;;;;;;18.67;10.95;;;0.50;95.60;;;;;;5073311;28;20211;-89
2022/03/22 04:20:10;;;;;;;15.02;10.50;;;0.50;96.00;;;;;;5073625;28;20205;-89
2022/03/22 04:22:38;;;;;;;16.65;11.45;;;0.40;95.70;;;;;;5073728;28;20227;-89
2022/03/22 04:25:06;;;;;;;13.35;10.85;;;0.40;95.70;;;;;;5073494;28;20204;-90
2022/03/22 04:33:02;;;;;;;14.80;10.38;;;0.40;96.10;;;;;;5073237;28;20223;-90
2022/03/22 04:35:29;;;;;;;14.95;11.60;;;0.30;96.10;;;;;;5064141;28;20197;-90
2022/03/22 04:37:57;;;;;;;12.30;10.38;;;0.30;96.10;;;;;;5069283;28;20198;-89
2022/03/22 04:40:25;;;;;;;16.20;11.25;;;0.40;95.90;;;;;;5067359;28;20200;-89
2022/03/22 04:42:52;;;;;;;16.52;11.25;;;0.40;95.90;;;;;;5064869;28;20226;-89
2022/03/22 04:45:20;;;;;;;16.58;11.45;;;0.40;95.90;;;;;;5062233;28;20595;-90
2022/03/22 04:47:49;;;;;;;15.38;11.70;;;0.40;95.70;;;;;;5070518;28;20200;-90
2022/03/22 04:50:18;;;;;;;14.45;11.23;;;0.40;95.50;;;;;;5073335;28;20696;-92
2022/03/22 04:58:33;;;;;;;18.00;12.35;;;0.30;95.70;;;;;;5023001;28;20225;-92
2022/03/22 05:01:00;;;;;;;14.25;10.77;;;0.30;95.70;;;;;;5067465;28;20177;-90
2022/03/22 05:03:27;;;;;;;14.68;10.75;;;0.30;96.10;;;;;;5086932;28;20221;-91
2022/03/22 05:08:41;;;;;;;15.10;10.75;;;0.30;95.80;;;;;;5073719;28;20208;-90
2022/03/22 05:11:11;;;;;;;17.02;11.15;;;0.20;95.90;;;;;;5073129;28;20213;-90
2022/03/22 05:13:38;;;;;;;16.92;11.82;;;0.20;96.10;;;;;;5056187;28;20460;-90
2022/03/22 05:16:05;;;;;;;19.25;11.45;;;0.20;96.10;;;;;;5074999;28;20269;-89
2022/03/22 05:18:34;;;;;;;14.20;11.18;;;0.20;96.10;;;;;;5074699;28;20204;-89
2022/03/22 05:21:04;;;;;;;16.20;11.55;;;0.20;96.10;;;;;;5062177;28;20693;-88
2022/03/22 05:23:31;;;;;;;15.48;10.45;;;0.20;96.10;;;;;;5059976;28;20217;-90
2022/03/22 05:26:01;;;;;;;18.10;11.75;;;0.20;96.10;;;;;;5056242;28;20205;-90
2022/03/22 05:28:49;;;;;;;15.48;11.10;;;0.20;96.10;;;;;;5077203;28;20208;-89
2022/03/22 05:31:17;;;;;;;16.67;10.20;;;0.20;96.00;;;;;;5078716;28;20220;-90
2022/03/22 05:33:44;;;;;;;14.80;11.20;;;0.20;96.10;;;;;;5078913;28;20755;-89
2022/03/22 05:36:21;;;;;;;13.65;11.43;;;0.20;96.00;;;;;;5079306;28;20611;-89
2022/03/22 05:38:48;;;;;;;19.05;12.25;;;0.20;95.90;;;;;;5078957;28;20295;-89
2022/03/22 05:41:15;;;;;;;18.02;12.05;;;0.20;96.00;;;;;;5080569;28;20255;-89
2022/03/22 05:43:42;;;;;;;16.15;10.65;;;0.30;96.10;;;;;;5078972;28;20228;-90
2022/03/22 05:46:10;;;;;;;14.48;11.15;;;0.30;96.10;;;;;;5080104;28;20204;-89
2022/03/22 05:48:39;;;;;;;18.40;11.25;;;0.40;96.10;;;;;;5077571;28;20842;-89
2022/03/22 05:51:06;;;;;;;13.77;10.50;;;0.40;96.00;;;;;;5077495;28;20235;-89
2022/03/22 05:53:33;;;;;;;16.63;10.75;;;0.40;96.10;;;;;;5077464;28;20220;-90
2022/03/22 05:55:59;;;;;;;15.18;11.80;;;0.40;96.10;;;;;;5077576;28;20212;-90
2022/03/22 05:58:26;;;;;;;16.75;11.10;;;0.40;96.10;;;;;;5079510;28;20204;-90
2022/03/22 06:00:53;;;;;;;14.13;10.60;;;0.40;96.00;;;;;;5078649;28;20227;-91
2022/03/22 06:03:21;;;;;;;16.85;11.70;;;0.40;96.00;;;;;;5077972;28;20252;-89
2022/03/22 06:05:49;;;;;;;16.02;11.52;;;0.40;96.10;;;;;;5077682;28;20218;-91
2022/03/22 06:08:16;;;;;;;17.90;12.27;;;0.50;96.20;;;;;;5077512;28;20292;-90
2022/03/22 06:10:43;;;;;;;15.95;11.43;;;0.50;96.10;;;;;;5077213;28;20224;-91
2022/03/22 06:13:10;;;;;;;18.77;11.82;;;0.60;96.10;;;;;;5076073;28;20228;-90
2022/03/22 06:15:37;;;;;;;16.88;11.88;;;0.60;96.00;;;;;;5077771;28;20215;-89
2022/03/22 06:18:06;;;;;;;13.98;10.55;;;0.70;96.00;;;;;;5077022;28;20300;-91
2022/03/22 06:20:36;;;;;;;16.42;10.40;;;0.70;96.00;;;;;;5077318;28;20200;-91
2022/03/22 06:23:07;;;;;;;15.05;10.20;;;0.80;96.00;;;;;;5075860;28;20224;-90
2022/03/22 06:25:35;;;;;;;15.05;11.10;;;0.90;95.90;;;;;;5076715;28;20207;-90
2022/03/22 06:28:03;;;;;;;13.70;10.88;;;1.00;96.00;;;;;;5076195;28;20204;-91
2022/03/22 06:30:30;;;;;;;15.27;10.77;;;1.00;96.00;;;;;;5076324;28;20232;-90
2022/03/22 06:33:00;;;;;;;17.60;10.63;;;1.20;95.70;;;;;;5075823;28;20231;-90
2022/03/22 06:35:28;;;;;;;20.40;11.73;;;1.30;95.30;;;;;;5076851;28;20204;-89
2022/03/22 06:37:58;;;;;;;14.77;10.20;;;1.40;95.40;;;;;;5076352;28;20669;-89
2022/03/22 06:40:27;;;;;;;14.50;11.05;;;1.40;95.60;;;;;;5078614;28;20214;-90
2022/03/22 06:42:54;;;;;;;16.83;11.77;;;1.50;95.90;;;;;;5084362;28;20229;-90
2022/03/22 06:45:21;;;;;;;15.35;10.88;;;1.60;96.30;;;;;;5081960;28;20205;-89
2022/03/22 06:47:48;;;;;;;15.48;10.70;;;1.70;96.00;;;;;;5080135;28;20226;-89
2022/03/22 06:50:17;;;;;;;15.55;10.13;;;1.80;96.00;;;;;;5075144;28;20223;-90
2022/03/22 06:52:44;;;;;;;15.32;11.60;;;1.90;96.00;;;;;;5075829;28;20697;-91
2022/03/22 06:55:14;;;;;;;16.85;11.05;;;2.10;95.90;;;;;;5085247;28;20208;-90
2022/03/22 06:57:41;;;;;;;16.55;11.60;;;2.20;95.80;;;;;;5075105;28;20259;-90
2022/03/22 07:00:11;;;;;;;16.38;11.10;;;2.40;95.50;;;;;;5077175;28;20278;-90
2022/03/22 07:02:39;;;;;;;15.57;10.45;;;2.50;95.50;;;;;;5115454;22;20287;-69
2022/03/22 07:05:07;;;;;;;14.48;10.80;;;2.70;95.80;;;;;;5055706;28;20304;-69
2022/03/22 07:07:35;;;;;;;15.68;11.65;;;2.90;95.90;;;;;;5050654;28;20197;-69
2022/03/22 07:10:02;;;;;;;16.65;12.60;;;3.10;95.70;;;;;;5050922;28;20224;-69
2022/03/22 07:12:30;;;;;;;18.42;12.38;;;3.30;95.80;;;;;;5051322;28;20204;-66
2022/03/22 07:14:57;;;;;;;21.40;12.77;;;3.60;95.90;;;;;;5050832;28;20666;-66
2022/03/22 07:17:23;;;;;;;16.20;12.30;;;4.00;96.10;;;;;;5050555;28;20212;-66
2022/03/22 07:19:51;;;;;;;13.70;11.90;;;4.50;96.30;;;;;;5050620;28;20672;-68
2022/03/22 07:22:18;;;;;;;15.40;11.13;;;5.00;95.80;;;;;;5051118;28;20196;-68
2022/03/22 07:24:44;;;;;;;14.40;11.45;;;5.70;94.70;;;;;;5050776;28;20225;-68
2022/03/22 07:27:11;;;;;;;15.18;11.27;;;6.30;93.40;;;;;;5050628;28;20201;-68
2022/03/22 07:29:39;;;;;;;16.80;12.10;;;6.90;92.10;;;;;;5050971;28;20258;-68
2022/03/22 07:32:06;;;;;;;16.25;11.82;;;7.40;91.20;;;;;;5050834;28;20208;-68
2022/03/22 07:34:33;;;;;;;14.55;11.52;;;7.90;90.80;;;;;;5050808;28;20205;-68
2022/03/22 07:37:00;;;;;;;15.68;11.43;;;8.50;90.40;;;;;;5049884;28;20209;-68
2022/03/22 07:39:29;;;;;;;16.33;11.45;;;9.00;89.70;;;;;;5050823;28;20204;-68
2022/03/22 07:41:56;;;;;;;15.13;11.40;;;9.50;87.80;;;;;;5050476;28;20201;-68
2022/03/22 07:44:23;;;;;;;14.13;11.85;;;10.00;83.90;;;;;;5050540;28;20228;-68
2022/03/22 07:46:51;;;;;;;12.98;11.68;;;10.60;82.20;;;;;;5049915;28;20211;-68
2022/03/22 07:54:46;;;;;;;13.93;11.77;;;11.50;79.90;;;;;;5050371;28;20589;-68
2022/03/22 07:57:13;;;;;;;14.67;11.60;;;12.10;79.60;;;;;;5049942;28;20299;-68
2022/03/22 07:59:39;;;;;;;17.00;13.00;;;12.60;79.20;;;;;;5050360;28;20825;-68
2022/03/22 08:02:08;;;;;;;19.10;13.00;;;13.10;77.10;;;;;;5050472;28;20534;-68
2022/03/22 08:04:35;;;;;;;17.43;13.33;;;13.60;77.90;;;;;;5050049;28;20491;-68
2022/03/22 08:07:02;;;;;;;18.73;13.20;;;14.10;76.50;;;;;;5049844;28;20474;-68
2022/03/22 08:09:28;;;;;;;20.30;13.50;;;14.70;76.90;;;;;;5050311;28;20463;-68
2022/03/22 08:11:55;;;;;;;20.90;13.23;;;15.20;75.20;;;;;;5049793;28;20907;-68
2022/03/22 08:14:22;;;;;;;19.00;14.47;;;15.70;74.20;;;;;;5050543;28;20581;-68
2022/03/22 08:16:49;;;;;;;22.77;14.20;;;15.80;71.00;;;;;;5049430;28;20463;-68
2022/03/22 08:19:18;;;;;;;17.80;13.80;;;16.10;72.30;;;;;;5050344;28;20638;-68
2022/03/22 08:21:46;;;;;;;15.00;12.93;;;16.50;72.10;;;;;;5049983;28;20451;-68
2022/03/22 08:24:13;;;;;;;14.20;12.70;;;16.50;67.70;;;;;;5050196;28;20459;-68
2022/03/22 08:26:40;;;;;;;17.37;13.97;;;16.40;67.10;;;;;;5049530;28;20487;-69
2022/03/22 08:29:07;;;;;;;15.27;13.57;;;16.70;69.30;;;;;;5050160;28;20513;-68
2022/03/22 08:31:35;;;;;;;14.13;12.10;;;17.20;69.30;;;;;;5050702;28;20483;-69
2022/03/22 08:34:02;;;;;;;18.10;13.83;;;17.30;69.40;;;;;;5049995;28;20460;-69
2022/03/22 08:36:30;;;;;;;18.63;13.30;;;17.80;67.00;;;;;;5050435;28;20479;-68
2022/03/22 08:38:58;;;;;;;19.07;13.93;;;18.20;67.30;;;;;;5049526;28;20874;-68
2022/03/22 08:41:24;;;;;;;18.03;14.13;;;18.50;66.20;;;;;;5050139;28;20459;-68
2022/03/22 08:43:52;;;;;;;20.63;13.70;;;18.60;66.80;;;;;;5049762;28;20820;-69
2022/03/22 08:46:20;;;;;;;17.00;13.07;;;19.20;65.30;;;;;;5049845;28;20835;-69
2022/03/22 08:48:47;;;;;;;16.43;13.63;;;19.40;65.10;;;;;;5049510;28;20463;-69
2022/03/22 08:51:16;;;;;;;15.07;13.07;;;19.70;64.40;;;;;;5049851;28;20483;-69
2022/03/22 08:53:44;;;;;;;17.23;13.77;;;20.00;62.20;;;;;;5049735;28;20460;-69
2022/03/22 08:56:11;;;;;;;15.03;12.83;;;20.00;61.30;;;;;;5049646;28;21017;-69
2022/03/22 08:58:38;;;;;;;17.50;13.93;;;20.00;64.30;;;;;;5049183;28;20938;-69
2022/03/22 09:01:05;;;;;;;16.00;13.87;;;20.10;63.30;;;;;;5050705;28;20882;-69
2022/03/22 09:03:32;;;;;;;19.30;13.87;;;20.30;62.50;;;;;;5053479;28;20835;-69
2022/03/22 09:06:12;;;;;;;16.60;13.43;;;20.80;62.50;;;;;;5053388;28;20613;-68
2022/03/22 09:08:41;;;;;;;18.00;14.63;;;21.20;62.40;;;;;;5052633;28;20829;-69
2022/03/22 09:11:10;;;;;;;15.40;13.90;;;21.90;62.10;;;;;;5053424;28;20494;-69
2022/03/22 09:13:38;;;;;;;13.93;12.43;;;21.80;59.60;;;;;;5053419;28;20459;-69
2022/03/22 09:16:09;;;;;;;19.23;14.83;;;21.90;60.40;;;;;;5053353;28;20478;-69
2022/03/22 09:18:37;;;;;;;14.50;13.20;;;22.30;60.90;;;;;;5050756;28;20973;-69
2022/03/22 09:21:04;;;;;;;14.93;13.17;;;22.70;59.90;;;;;;5070017;28;20470;-69
2022/03/22 09:23:31;;;;;;;15.30;13.17;;;23.00;59.20;;;;;;5072380;28;20515;-69
2022/03/22 09:25:57;;;;;;;13.70;12.30;;;23.00;59.60;;;;;;5071883;28;20518;-69
2022/03/22 09:28:26;;;;;;;14.83;13.13;;;23.10;58.90;;;;;;5071886;28;20876;-69
2022/03/22 09:30:53;;;;;;;15.30;13.37;;;23.10;57.10;;;;;;5071545;28;21001;-69
2022/03/22 09:33:20;;;;;;;20.33;14.37;;;23.40;57.00;;;;;;5071667;28;20954;-69
2022/03/22 09:35:48;;;;;;;14.70;13.20;;;23.90;57.20;;;;;;5071826;28;20478;-69
2022/03/22 09:38:15;;;;;;;14.70;13.17;;;24.20;56.50;;;;;;5071787;28;20462;-69
2022/03/22 09:40:42;;;;;;;16.47;14.17;;;24.00;55.70;;;;;;5072071;28;20454;-68
2022/03/22 09:43:10;;;;;;;15.07;13.47;;;24.50;56.70;;;;;;5072123;28;20494;-69
2022/03/22 09:45:39;;;;;;;14.60;13.10;;;24.80;56.80;;;;;;5071615;28;20478;-69
2022/03/22 09:48:07;;;;;;;15.70;14.10;;;25.40;54.90;;;;;;5071753;28;20458;-69
2022/03/22 09:53:18;;;;;;;14.00;12.57;;;24.90;53.70;;;;;;5072228;28;20825;-69
2022/03/22 09:55:45;;;;;;;15.27;13.80;;;24.90;55.30;;;;;;5071217;28;20903;-69
2022/03/22 09:58:12;;;;;;;15.47;13.87;;;25.10;55.60;;;;;;5071059;28;20462;-69
2022/03/22 10:00:40;;;;;;;14.37;13.03;;;25.60;55.00;;;;;;5071460;28;20458;-69
2022/03/22 10:03:07;;;;;;;17.07;14.17;;;25.60;53.30;;;;;;5071639;28;20479;-69
2022/03/22 10:05:34;;;;;;;15.07;13.67;;;25.40;54.20;;;;;;5069499;28;21051;-69
2022/03/22 10:08:05;;;;;;;17.30;13.33;;;25.80;54.00;;;;;;5070864;28;20462;-69
2022/03/22 10:10:32;;;;;;;14.23;12.83;;;25.60;53.90;;;;;;5070940;28;20469;-69
2022/03/22 10:13:01;;;;;;;15.57;13.13;;;25.10;52.80;;;;;;5070724;28;20509;-68
2022/03/22 10:15:33;;;;;;;14.10;12.40;;;25.10;53.20;;;;;;5072040;28;20845;-68
2022/03/22 10:18:09;;;;;;;15.13;13.40;;;25.20;54.00;;;;;;5070925;28;20465;-69
2022/03/22 10:20:38;;;;;;;14.90;13.43;;;25.80;53.60;;;;;;5071273;28;20478;-69
2022/03/22 10:23:07;;;;;;;14.20;12.90;;;26.50;54.10;;;;;;5070833;28;20466;-69
2022/03/22 10:25:35;;;;;;;16.93;13.50;;;27.30;52.90;;;;;;5071076;28;20532;-69
2022/03/22 10:28:04;;;;;;;14.33;12.93;;;27.70;51.40;;;;;;5071069;28;20843;-69
2022/03/22 10:30:33;;;;;;;14.07;12.67;;;27.40;51.10;;;;;;5071092;28;20580;-69
2022/03/22 10:33:00;;;;;;;14.97;13.53;;;27.40;50.90;;;;;;5070876;28;20466;-69
2022/03/22 10:35:30;;;;;;;13.03;11.73;;;27.80;51.30;;;;;;5070542;28;20482;-69
2022/03/22 10:37:58;;;;;;;13.50;12.20;;;28.50;50.50;;;;;;5070648;28;20488;-69
2022/03/22 10:40:29;;;;;;;13.30;11.90;;;28.80;49.00;;;;;;5070836;28;20941;-69
2022/03/22 10:42:58;;;;;;;14.63;13.20;;;27.60;50.50;;;;;;5070831;28;20536;-69
2022/03/22 10:45:27;;;;;;;12.70;11.50;;;28.00;50.00;;;;;;5071129;28;20486;-69
2022/03/22 10:47:54;;;;;;;13.13;12.00;;;28.90;48.90;;;;;;5069220;28;20905;-69
2022/03/22 10:50:21;;;;;;;13.33;11.97;;;29.10;49.40;;;;;;5070973;28;20852;-69
2022/03/22 10:52:51;;;;;;;16.43;12.40;;;29.00;47.50;;;;;;5070616;28;20483;-69
2022/03/22 10:55:21;;;;;;;12.83;11.53;;;29.10;49.20;;;;;;5070542;28;20981;-69
2022/03/22 10:57:50;;;;;;;14.63;12.53;;;28.60;47.50;;;;;;5070838;28;20954;-69
2022/03/22 11:00:18;;;;;;;15.07;11.53;;;28.80;48.40;;;;;;5069996;28;20459;-69
2022/03/22 11:02:49;;;;;;;12.53;11.43;;;28.30;47.10;;;;;;5070349;28;20493;-69
2022/03/22 11:05:19;;;;;;;13.30;11.93;;;28.60;48.70;;;;;;5070189;28;20522;-69
2022/03/22 11:07:47;;;;;;;13.47;12.17;;;29.40;46.90;;;;;;5070185;28;20462;-68
2022/03/22 11:10:18;;;;;;;15.10;13.60;;;29.60;47.80;;;;;;5069877;28;20491;-68
2022/03/22 11:12:45;;;;;;;14.70;13.30;;;29.80;47.60;;;;;;5070509;28;20486;-69
2022/03/22 11:15:14;;;;;;;16.07;14.37;;;30.20;47.60;;;;;;5070381;28;20839;-69
2022/03/22 11:17:41;;;;;;;14.87;13.57;;;29.70;46.70;;;;;;5069489;28;20898;-69
2022/03/22 11:20:12;;;;;;;14.87;13.07;;;29.80;48.50;;;;;;5071311;28;20523;-69
2022/03/22 11:22:45;;;;;;;14.93;13.53;;;29.30;47.40;;;;;;5069368;28;20605;-69
2022/03/22 11:25:14;;;;;;;15.77;14.10;;;29.60;46.70;;;;;;5069827;28;20499;-69
2022/03/22 11:27:42;;;;;;;13.60;12.20;;;29.80;48.80;;;;;;5069620;28;20551;-68
2022/03/22 11:30:10;;;;;;;15.10;13.70;;;30.20;48.10;;;;;;5070397;28;20468;-69
2022/03/22 11:35:24;;;;;;;15.60;14.10;;;30.00;46.20;;;;;;5069110;28;20594;-69
2022/03/22 11:38:00;;;;;;;16.70;14.17;;;30.30;46.90;;;;;;5069627;28;20469;-69
2022/03/22 11:43:13;;;;;;;15.73;14.23;;;30.90;47.30;;;;;;5069838;28;20433;-69
2022/03/22 11:45:48;;;;;;;16.20;14.60;;;30.00;49.40;;;;;;5069884;28;20905;-68
2022/03/22 11:48:16;;;;;;;15.70;14.20;;;30.20;46.30;;;;;;5068689;28;20472;-68
2022/03/22 11:50:43;;;;;;;15.53;14.03;;;30.10;48.50;;;;;;5070085;28;20462;-68
2022/03/22 11:53:17;;;;;;;17.50;14.67;;;30.70;46.50;;;;;;5069444;28;20482;-68
2022/03/22 11:55:49;;;;;;;16.93;15.07;;;30.50;47.10;;;;;;5069636;28;20469;-69
2022/03/22 11:58:17;;;;;;;17.00;15.50;;;30.70;48.40;;;;;;5069266;28;20461;-69
2022/03/22 12:00:46;;;;;;;18.17;14.83;;;30.60;46.70;;;;;;5069525;28;20461;-69
2022/03/22 12:03:15;;;;;;;16.37;14.67;;;30.40;47.10;;;;;;5069412;28;20882;-69
2022/03/22 12:05:43;;;;;;;15.03;13.40;;;30.80;46.70;;;;;;5069677;28;20861;-68
2022/03/22 12:08:13;;;;;;;16.27;14.67;;;30.30;47.00;;;;;;5069383;28;20473;-69
2022/03/22 12:10:41;;;;;;;17.80;16.00;;;30.00;47.70;;;;;;5069997;28;20464;-68
2022/03/22 12:13:08;;;;;;;15.30;13.80;;;30.00;46.90;;;;;;5058016;28;20494;-68
2022/03/22 12:15:36;;;;;;;15.73;14.20;;;30.40;47.30;;;;;;5048519;28;20485;-68
2022/03/22 12:18:03;;;;;;;18.53;15.33;;;30.60;46.60;;;;;;5047326;28;20874;-68
2022/03/22 12:20:30;;;;;;;16.67;15.13;;;30.10;46.40;;;;;;5049358;28;20895;-68
2022/03/22 12:22:59;;;;;;;16.10;14.60;;;29.70;47.40;;;;;;5048854;28;20461;-68
2022/03/22 12:25:28;;;;;;;17.40;14.33;;;29.60;47.90;;;;;;5048312;28;20481;-68
2022/03/22 12:27:57;;;;;;;16.47;14.87;;;30.10;46.40;;;;;;5048968;28;20857;-68
2022/03/22 12:30:25;;;;;;;17.37;15.10;;;30.20;46.10;;;;;;5052316;28;20464;-68
2022/03/22 12:32:55;;;;;;;15.57;13.93;;;29.30;46.40;;;;;;5068755;28;20488;-68
2022/03/22 12:35:23;;;;;;;16.30;14.60;;;29.60;47.40;;;;;;5068523;28;20484;-68
2022/03/22 12:37:51;;;;;;;14.90;13.40;;;30.00;45.20;;;;;;5072153;28;20466;-68
2022/03/22 12:40:19;;;;;;;14.70;13.40;;;29.70;46.20;;;;;;5072441;28;20456;-68
2022/03/22 12:42:49;;;;;;;15.70;14.30;;;29.70;46.20;;;;;;5073435;28;20824;-68
2022/03/22 12:45:17;;;;;;;15.97;14.40;;;29.80;45.10;;;;;;5072624;28;20480;-68
2022/03/22 12:47:45;;;;;;;14.97;13.47;;;30.10;45.10;;;;;;5072222;28;20468;-69
2022/03/22 12:50:14;;;;;;;15.00;13.60;;;29.60;47.20;;;;;;5072300;28;20479;-68
2022/03/22 12:52:42;;;;;;;14.43;13.03;;;29.10;45.10;;;;;;5073029;28;20491;-68
2022/03/22 12:55:11;;;;;;;14.37;12.97;;;29.40;44.10;;;;;;5072325;28;20506;-68
2022/03/22 12:57:41;;;;;;;14.13;12.67;;;29.40;45.00;;;;;;5071890;28;20502;-68
2022/03/22 13:00:09;;;;;;;15.10;13.70;;;29.50;45.10;;;;;;5072552;28;20467;-68
2022/03/22 13:02:37;;;;;;;14.93;13.33;;;29.70;44.70;;;;;;5072174;28;20460;-68
2022/03/22 13:05:05;;;;;;;14.17;12.80;;;29.70;43.50;;;;;;5072540;28;20484;-68
2022/03/22 13:07:35;;;;;;;14.87;13.23;;;29.60;43.70;;;;;;5072363;28;20489;-68
2022/03/22 13:12:47;;;;;;;14.00;12.60;;;29.10;43.70;;;;;;5072557;28;20948;-68
2022/03/22 13:15:14;;;;;;;13.83;11.97;;;29.10;43.90;;;;;;5072065;28;20837;-68
2022/03/22 13:17:45;;;;;;;14.80;13.27;;;29.00;44.60;;;;;;5071703;28;20460;-68